Time;durP1;ratioP1;P1;durP2;ratioP2;P2;SDS_P1;SDS_P2;PMS_P1;PMS_P2;Temp;Humidity;BMP_temperature;BMP_pressure;BME280_temperature;BME280_humidity;BME280_pressure;Samples;Min_cycle;Max_cycle;Signal;HPM_P1;HPM_P2
2020/12/03 00:00:22;;;;;;;5.70;2.22;;;17.30;46.20;;;;;;5087758;28;20503;-49
2020/12/03 00:02:49;;;;;;;2.47;1.83;;;17.30;46.10;;;;;;5090417;28;20530;-48
2020/12/03 00:05:16;;;;;;;7.22;1.98;;;17.30;46.00;;;;;;5096660;28;20409;-50
2020/12/03 00:07:43;;;;;;;2.83;1.20;;;17.30;45.90;;;;;;5100363;28;20116;-47
2020/12/03 00:10:10;;;;;;;5.68;1.67;;;17.40;45.90;;;;;;5097279;28;20127;-49
2020/12/03 00:12:36;;;;;;;7.68;1.95;;;17.40;45.80;;;;;;5097033;28;20862;-49
2020/12/03 00:15:03;;;;;;;2.97;1.13;;;17.40;45.80;;;;;;5099662;28;20066;-46
2020/12/03 00:17:31;;;;;;;5.13;1.35;;;17.40;46.40;;;;;;5100725;28;20075;-48
2020/12/03 00:19:57;;;;;;;6.90;1.77;;;17.50;45.80;;;;;;5099359;28;20044;-49
2020/12/03 00:22:24;;;;;;;8.05;1.95;;;17.50;45.70;;;;;;5099293;28;20096;-45
2020/12/03 00:24:50;;;;;;;5.50;1.58;;;17.50;45.60;;;;;;5100975;28;20035;-48
2020/12/03 00:27:17;;;;;;;10.10;2.15;;;17.50;45.70;;;;;;5101031;28;20039;-46
2020/12/03 00:29:43;;;;;;;5.63;1.30;;;17.50;45.60;;;;;;5087920;28;20563;-46
2020/12/03 00:32:11;;;;;;;7.18;1.65;;;17.50;45.50;;;;;;5083745;28;20051;-46
2020/12/03 00:34:41;;;;;;;2.67;1.05;;;17.50;45.50;;;;;;5089458;28;20672;-46
2020/12/03 00:37:07;;;;;;;8.35;1.17;;;17.60;45.40;;;;;;5088719;28;20085;-51
2020/12/03 00:39:34;;;;;;;8.30;2.70;;;17.50;45.40;;;;;;5090500;28;20468;-46
2020/12/03 00:42:02;;;;;;;3.53;1.08;;;17.60;45.40;;;;;;5086866;28;20056;-48
2020/12/03 00:44:28;;;;;;;10.77;2.10;;;17.60;45.40;;;;;;5086148;28;20067;-47
2020/12/03 00:46:55;;;;;;;5.43;1.30;;;17.60;45.40;;;;;;5088385;28;20055;-46
2020/12/03 00:49:22;;;;;;;6.65;1.75;;;17.60;45.40;;;;;;5090307;28;20067;-46
2020/12/03 00:51:54;;;;;;;7.40;1.17;;;17.60;45.40;;;;;;5089234;28;20043;-48
2020/12/03 00:54:27;;;;;;;5.13;0.95;;;17.60;45.40;;;;;;5089921;28;20063;-48
2020/12/03 00:56:53;;;;;;;13.73;0.93;;;17.60;45.40;;;;;;5090079;28;20562;-46
2020/12/03 00:59:21;;;;;;;4.85;1.02;;;17.60;45.40;;;;;;5089428;28;20156;-48
2020/12/03 01:01:48;;;;;;;3.00;1.17;;;17.60;45.40;;;;;;5089446;28;20048;-49
2020/12/03 01:04:14;;;;;;;5.88;0.82;;;17.60;45.40;;;;;;5072785;28;20048;-47
2020/12/03 01:06:44;;;;;;;4.68;0.80;;;17.60;45.50;;;;;;5073911;28;20393;-47
2020/12/03 01:09:12;;;;;;;4.75;0.88;;;17.60;45.50;;;;;;5078286;28;20525;-47
2020/12/03 01:11:38;;;;;;;6.22;1.15;;;17.60;45.50;;;;;;5078116;28;20503;-48
2020/12/03 01:14:05;;;;;;;3.47;0.68;;;17.60;45.50;;;;;;5078377;28;20040;-46
2020/12/03 01:16:32;;;;;;;4.80;1.10;;;17.60;45.80;;;;;;5075239;28;20055;-49
2020/12/03 01:18:58;;;;;;;4.55;0.90;;;17.60;45.60;;;;;;5089706;28;20123;-46
2020/12/03 01:21:25;;;;;;;4.38;0.88;;;17.50;45.60;;;;;;5078212;28;20053;-47
2020/12/03 01:23:51;;;;;;;4.50;0.68;;;17.50;45.60;;;;;;5078339;28;20083;-47
2020/12/03 01:26:20;;;;;;;3.13;0.57;;;17.60;45.70;;;;;;5088323;28;20048;-49
2020/12/03 01:28:47;;;;;;;4.00;0.47;;;17.50;45.80;;;;;;5085642;28;20043;-46
2020/12/03 01:31:13;;;;;;;5.88;0.95;;;17.50;45.90;;;;;;5089014;28;20043;-48
2020/12/03 01:33:40;;;;;;;7.10;0.93;;;17.50;46.10;;;;;;5075609;28;20091;-47
2020/12/03 01:36:07;;;;;;;2.30;1.05;;;17.50;46.20;;;;;;5083934;28;20048;-49
2020/12/03 01:38:34;;;;;;;2.05;0.60;;;17.50;46.30;;;;;;5090236;28;20495;-47
2020/12/03 01:41:01;;;;;;;2.55;0.50;;;17.50;46.30;;;;;;5088888;28;20040;-50
2020/12/03 01:43:28;;;;;;;3.58;0.52;;;17.50;46.40;;;;;;5073974;28;20096;-49
2020/12/03 01:45:57;;;;;;;4.35;0.43;;;17.50;46.40;;;;;;5088583;28;20044;-52
2020/12/03 01:48:41;;;;;;;3.03;1.13;;;17.50;46.60;;;;;;5095478;28;20131;-48
2020/12/03 01:51:14;;;;;;;2.55;0.32;;;17.50;46.60;;;;;;5088029;28;20048;-49
2020/12/03 01:53:41;;;;;;;1.88;0.50;;;17.50;46.60;;;;;;5089614;28;20113;-50
2020/12/03 01:56:40;;;;;;;3.38;0.65;;;17.50;46.60;;;;;;5090303;28;20040;-47
2020/12/03 01:59:08;;;;;;;2.22;0.45;;;17.50;46.70;;;;;;5082707;28;20127;-50
2020/12/03 02:01:36;;;;;;;1.55;0.38;;;17.40;46.70;;;;;;5081440;28;20094;-48
2020/12/03 02:04:03;;;;;;;2.85;0.68;;;17.50;46.70;;;;;;5088344;28;20056;-49
2020/12/03 02:06:35;;;;;;;2.55;0.22;;;17.40;46.70;;;;;;5077408;28;20044;-47
2020/12/03 02:09:02;;;;;;;2.83;0.80;;;17.40;46.70;;;;;;5086991;28;20106;-49
2020/12/03 02:11:29;;;;;;;3.30;0.40;;;17.40;46.70;;;;;;5090566;28;20115;-48
2020/12/03 02:13:59;;;;;;;2.72;0.50;;;17.40;47.30;;;;;;5090731;28;20102;-47
2020/12/03 02:16:28;;;;;;;2.42;0.40;;;17.40;46.70;;;;;;5088133;28;20056;-47
2020/12/03 02:18:55;;;;;;;3.65;0.45;;;17.40;46.70;;;;;;5089370;28;20052;-47
2020/12/03 02:21:22;;;;;;;1.45;0.38;;;17.40;46.80;;;;;;5090458;28;20501;-49
2020/12/03 02:23:49;;;;;;;2.28;0.55;;;17.40;46.80;;;;;;5090177;28;20519;-47
2020/12/03 02:26:16;;;;;;;3.05;1.02;;;17.40;46.80;;;;;;5090683;28;20055;-46
2020/12/03 02:28:43;;;;;;;4.00;0.40;;;17.40;46.80;;;;;;5088696;28;20071;-47
2020/12/03 02:31:10;;;;;;;2.17;0.20;;;17.40;46.80;;;;;;5071776;28;20079;-47
2020/12/03 02:33:38;;;;;;;5.05;0.75;;;17.40;46.90;;;;;;5090859;28;20048;-48
2020/12/03 02:36:05;;;;;;;2.15;0.35;;;17.40;47.00;;;;;;5090234;28;20047;-48
2020/12/03 02:38:32;;;;;;;4.13;0.40;;;17.40;47.10;;;;;;5090422;28;20047;-48
2020/12/03 02:41:01;;;;;;;4.68;0.70;;;17.40;47.20;;;;;;5092563;28;20483;-47
2020/12/03 02:43:28;;;;;;;2.70;0.82;;;17.40;47.20;;;;;;5092941;28;20051;-50
2020/12/03 02:45:55;;;;;;;3.40;0.43;;;17.40;47.20;;;;;;5076853;28;20045;-48
2020/12/03 02:48:22;;;;;;;3.20;0.50;;;17.40;47.10;;;;;;5093435;28;20051;-47
2020/12/03 02:50:49;;;;;;;4.72;0.52;;;17.40;47.10;;;;;;5094054;28;20121;-47
2020/12/03 02:53:15;;;;;;;1.08;0.45;;;17.40;47.10;;;;;;5088268;28;20063;-46
2020/12/03 02:55:43;;;;;;;0.93;0.20;;;17.40;47.20;;;;;;5093871;28;20126;-47
2020/12/03 02:58:10;;;;;;;1.35;0.30;;;17.40;47.20;;;;;;5072610;28;20090;-48
2020/12/03 03:00:36;;;;;;;2.72;0.55;;;17.40;47.20;;;;;;5078617;28;20068;-47
2020/12/03 03:03:03;;;;;;;2.53;0.30;;;17.40;47.30;;;;;;5093702;28;20477;-46
2020/12/03 03:05:29;;;;;;;3.00;0.40;;;17.40;47.30;;;;;;5093766;28;20147;-48
2020/12/03 03:07:56;;;;;;;3.60;0.70;;;17.40;47.30;;;;;;5092204;28;20523;-46
2020/12/03 03:10:22;;;;;;;3.17;0.40;;;17.40;47.30;;;;;;5075798;28;20040;-46
2020/12/03 03:12:50;;;;;;;2.78;0.40;;;17.40;47.30;;;;;;5093244;28;20051;-46
2020/12/03 03:15:18;;;;;;;2.15;0.57;;;17.40;47.40;;;;;;5093177;28;20139;-46
2020/12/03 03:17:44;;;;;;;1.52;0.32;;;17.40;47.30;;;;;;5092573;28;20437;-49
2020/12/03 03:20:11;;;;;;;3.50;0.75;;;17.40;47.40;;;;;;5093398;28;20123;-48
2020/12/03 03:22:40;;;;;;;1.35;0.60;;;17.40;47.30;;;;;;5093191;28;20052;-53
2020/12/03 03:25:07;;;;;;;3.05;0.38;;;17.40;47.30;;;;;;5091245;28;20566;-47
2020/12/03 03:27:35;;;;;;;3.05;0.40;;;17.40;47.40;;;;;;5092826;28;20064;-49
2020/12/03 03:30:05;;;;;;;1.40;0.80;;;17.40;47.40;;;;;;5093422;28;20064;-51
2020/12/03 03:32:32;;;;;;;2.95;1.13;;;17.40;47.30;;;;;;5093023;28;20516;-52
2020/12/03 03:34:58;;;;;;;3.17;0.65;;;17.40;47.30;;;;;;5093131;28;20109;-46
2020/12/03 03:37:25;;;;;;;3.15;0.68;;;17.40;47.20;;;;;;5091674;28;20189;-47
2020/12/03 03:39:52;;;;;;;3.97;0.68;;;17.40;47.20;;;;;;5091971;28;20036;-48
2020/12/03 03:42:18;;;;;;;2.25;0.52;;;17.40;47.30;;;;;;5092973;28;20109;-47
2020/12/03 03:44:45;;;;;;;0.82;0.50;;;17.40;47.30;;;;;;5089815;28;20200;-46
2020/12/03 03:47:12;;;;;;;4.78;0.22;;;17.40;47.30;;;;;;5091046;28;20068;-46
2020/12/03 03:49:39;;;;;;;3.35;1.00;;;17.40;47.40;;;;;;5093089;28;20123;-48
2020/12/03 03:52:08;;;;;;;2.67;0.95;;;17.40;47.30;;;;;;5090585;28;20067;-51
2020/12/03 03:54:35;;;;;;;1.20;0.57;;;17.40;47.30;;;;;;5092119;28;20142;-49
2020/12/03 03:57:03;;;;;;;2.70;0.30;;;17.40;47.40;;;;;;5083258;28;20048;-49
2020/12/03 03:59:30;;;;;;;3.58;0.38;;;17.40;47.40;;;;;;5084728;28;20430;-48
2020/12/03 04:01:57;;;;;;;3.03;0.30;;;17.40;47.40;;;;;;5091343;28;20040;-50
2020/12/03 04:04:25;;;;;;;3.95;1.48;;;17.40;47.40;;;;;;5091684;28;20078;-46
2020/12/03 04:06:51;;;;;;;2.35;0.40;;;17.40;47.30;;;;;;5075925;28;20098;-47
2020/12/03 04:09:18;;;;;;;0.55;0.22;;;17.40;47.40;;;;;;5091004;28;20130;-48
2020/12/03 04:11:45;;;;;;;0.82;0.40;;;17.40;47.40;;;;;;5092254;28;20040;-50
2020/12/03 04:14:12;;;;;;;1.48;0.40;;;17.40;47.40;;;;;;5092215;28;20148;-46
2020/12/03 04:16:39;;;;;;;2.58;1.75;;;17.40;47.40;;;;;;5092168;28;20135;-46
2020/12/03 04:19:05;;;;;;;1.42;0.45;;;17.40;47.40;;;;;;5089682;28;20510;-49
2020/12/03 04:21:36;;;;;;;0.98;0.25;;;17.40;47.40;;;;;;5092704;28;20056;-49
2020/12/03 04:24:03;;;;;;;1.35;0.32;;;17.40;47.40;;;;;;5082823;28;20143;-47
2020/12/03 04:26:29;;;;;;;1.90;0.35;;;17.40;47.40;;;;;;5078990;28;20068;-48
2020/12/03 04:28:56;;;;;;;2.33;0.30;;;17.40;47.40;;;;;;5079509;28;20387;-48
2020/12/03 04:31:23;;;;;;;1.90;0.95;;;17.30;47.30;;;;;;5089245;28;20486;-48
2020/12/03 04:33:49;;;;;;;1.20;0.40;;;17.40;47.40;;;;;;5091437;28;20121;-51
2020/12/03 04:36:16;;;;;;;2.28;0.28;;;17.30;47.40;;;;;;5080847;28;20140;-48
2020/12/03 04:38:44;;;;;;;1.23;0.55;;;17.40;47.40;;;;;;5085436;28;20054;-47
2020/12/03 04:41:11;;;;;;;2.22;0.20;;;17.30;47.40;;;;;;5091857;28;20058;-49
2020/12/03 04:43:41;;;;;;;1.95;0.93;;;17.30;47.50;;;;;;5092087;28;20047;-47
2020/12/03 04:46:21;;;;;;;1.65;0.55;;;17.30;47.60;;;;;;5089542;28;20066;-47
2020/12/03 04:49:25;;;;;;;0.40;0.40;;;17.40;47.60;;;;;;5074280;28;20072;-46
2020/12/03 04:52:25;;;;;;;1.35;0.50;;;17.40;47.60;;;;;;5074171;28;20048;-47
2020/12/03 04:55:05;;;;;;;1.55;0.50;;;17.40;47.70;;;;;;5074106;28;20067;-53
2020/12/03 04:57:37;;;;;;;1.20;0.30;;;17.30;47.70;;;;;;5078184;28;20076;-51
2020/12/03 05:00:12;;;;;;;2.63;0.40;;;17.30;47.70;;;;;;5087925;28;20043;-50
2020/12/03 05:03:00;;;;;;;0.68;0.68;;;17.30;47.70;;;;;;5090748;28;20085;-49
2020/12/03 05:05:35;;;;;;;1.10;0.40;;;17.30;47.70;;;;;;5087074;28;20052;-47
2020/12/03 05:08:05;;;;;;;1.23;0.35;;;17.30;47.70;;;;;;5079200;28;20064;-50
2020/12/03 05:10:39;;;;;;;3.35;0.65;;;17.30;47.70;;;;;;5074947;28;20075;-48
2020/12/03 05:13:14;;;;;;;0.65;0.32;;;17.30;47.70;;;;;;5092960;28;20055;-50
2020/12/03 05:15:41;;;;;;;1.10;0.50;;;17.30;47.70;;;;;;5074937;28;20157;-52
2020/12/03 05:18:25;;;;;;;4.07;1.60;;;17.30;47.80;;;;;;5088042;28;20044;-46
2020/12/03 05:20:53;;;;;;;1.70;0.35;;;17.30;47.90;;;;;;5091106;28;20127;-51
2020/12/03 05:23:22;;;;;;;2.35;0.70;;;17.30;48.00;;;;;;5090996;28;20523;-47
2020/12/03 05:25:52;;;;;;;1.55;1.00;;;17.30;48.00;;;;;;5091023;28;20052;-49
2020/12/03 05:28:46;;;;;;;1.65;0.60;;;17.30;48.00;;;;;;5088894;28;20491;-49
2020/12/03 05:31:18;;;;;;;1.95;0.60;;;17.30;47.90;;;;;;5086228;28;20054;-48
2020/12/03 05:33:45;;;;;;;1.98;0.47;;;17.30;48.00;;;;;;5073535;28;20036;-49
2020/12/03 05:36:30;;;;;;;3.08;0.90;;;17.30;48.00;;;;;;5078045;28;20585;-49
2020/12/03 05:38:58;;;;;;;1.38;0.70;;;17.30;48.00;;;;;;5086625;28;20125;-48
2020/12/03 05:41:28;;;;;;;1.65;0.98;;;17.30;48.10;;;;;;5090913;28;20040;-48
2020/12/03 05:43:55;;;;;;;1.80;1.35;;;17.30;48.10;;;;;;5089132;28;20116;-49
2020/12/03 05:46:23;;;;;;;2.65;1.20;;;17.30;48.00;;;;;;5072441;28;20410;-48
2020/12/03 05:48:57;;;;;;;3.38;1.17;;;17.30;48.00;;;;;;5100952;28;20494;-49
2020/12/03 05:51:27;;;;;;;0.95;0.85;;;17.30;48.00;;;;;;5091107;28;20124;-47
2020/12/03 05:53:57;;;;;;;3.00;1.20;;;17.30;48.00;;;;;;5081031;28;20063;-47
2020/12/03 05:56:25;;;;;;;1.40;0.98;;;17.30;47.90;;;;;;5081612;28;20123;-48
2020/12/03 05:58:52;;;;;;;1.15;0.63;;;17.30;47.90;;;;;;5090849;28;20184;-46
2020/12/03 06:01:21;;;;;;;1.25;0.60;;;17.30;47.90;;;;;;5088127;28;20059;-47
2020/12/03 06:04:06;;;;;;;1.83;1.48;;;17.30;47.90;;;;;;5090563;28;20074;-47
2020/12/03 06:07:16;;;;;;;1.30;0.45;;;17.30;47.90;;;;;;5077015;28;20053;-46
2020/12/03 06:10:10;;;;;;;2.80;1.13;;;17.30;47.90;;;;;;5090400;28;20052;-51
2020/12/03 06:12:52;;;;;;;1.95;1.00;;;17.30;48.00;;;;;;5077442;28;20048;-48
2020/12/03 06:15:31;;;;;;;2.97;1.27;;;17.30;48.00;;;;;;5078638;28;20168;-48
2020/12/03 06:18:10;;;;;;;1.88;1.10;;;17.20;48.00;;;;;;5081129;28;20079;-48
2020/12/03 06:20:48;;;;;;;2.00;0.85;;;17.30;48.10;;;;;;5087199;28;20048;-50
2020/12/03 06:23:28;;;;;;;0.65;0.60;;;17.30;48.10;;;;;;5091965;28;20536;-48
2020/12/03 06:26:08;;;;;;;2.58;1.05;;;17.20;48.10;;;;;;5078455;28;20052;-50
2020/12/03 06:29:16;;;;;;;1.42;1.33;;;17.20;48.10;;;;;;5090625;28;20097;-50
2020/12/03 06:32:05;;;;;;;4.05;1.15;;;17.20;48.00;;;;;;5087721;28;20071;-48
2020/12/03 06:34:38;;;;;;;1.50;0.70;;;17.20;48.20;;;;;;5090144;28;20507;-49
2020/12/03 06:37:16;;;;;;;1.90;0.70;;;17.20;48.20;;;;;;5088015;28;20044;-54
2020/12/03 06:39:49;;;;;;;1.20;1.15;;;17.20;48.20;;;;;;5089897;28;20592;-49
2020/12/03 06:42:27;;;;;;;1.33;1.10;;;17.20;48.20;;;;;;5094002;28;20048;-50
2020/12/03 06:44:59;;;;;;;1.65;0.90;;;17.20;48.20;;;;;;5086257;28;20041;-55
2020/12/03 06:48:06;;;;;;;7.05;1.15;;;17.20;48.20;;;;;;5088899;28;20071;-48
2020/12/03 06:50:54;;;;;;;4.85;1.05;;;17.20;48.20;;;;;;5084515;28;20033;-49
2020/12/03 06:53:44;;;;;;;3.92;1.05;;;17.20;48.30;;;;;;5087976;28;20052;-49
2020/12/03 06:56:40;;;;;;;0.98;0.88;;;17.20;48.30;;;;;;5088727;28;20054;-51
2020/12/03 06:59:58;;;;;;;3.50;1.40;;;17.20;48.30;;;;;;5091526;28;20044;-53
2020/12/03 07:02:45;;;;;;;2.08;1.83;;;17.20;48.30;;;;;;5089032;28;20208;-50
2020/12/03 07:05:36;;;;;;;3.15;1.40;;;17.10;48.30;;;;;;5082631;28;20052;-48
2020/12/03 07:08:33;;;;;;;2.05;1.23;;;17.10;48.30;;;;;;5092143;28;20403;-47
2020/12/03 07:11:42;;;;;;;1.38;0.95;;;17.20;48.40;;;;;;5090561;28;20054;-49
2020/12/03 07:14:56;;;;;;;2.42;1.15;;;17.20;48.40;;;;;;5001386;28;20041;-49
2020/12/03 07:18:00;;;;;;;2.80;0.95;;;17.20;48.50;;;;;;5001447;28;20054;-47
2020/12/03 07:21:07;;;;;;;1.48;1.38;;;17.10;48.40;;;;;;5001292;28;20054;-47
2020/12/03 07:23:43;;;;;;;1.08;0.98;;;17.10;48.50;;;;;;5008388;28;20140;-54
2020/12/03 07:26:24;;;;;;;2.65;1.45;;;17.10;48.60;;;;;;5008456;28;20218;-54
2020/12/03 07:28:54;;;;;;;1.70;0.82;;;17.10;48.60;;;;;;5002845;28;20509;-51
2020/12/03 07:31:30;;;;;;;1.35;0.60;;;17.10;48.60;;;;;;5014682;28;20437;-49
2020/12/03 07:34:04;;;;;;;1.33;1.17;;;17.10;48.60;;;;;;5017138;28;20042;-51
2020/12/03 07:36:38;;;;;;;4.72;1.10;;;17.10;48.70;;;;;;5017615;28;20053;-51
2020/12/03 07:39:10;;;;;;;3.05;0.60;;;17.10;48.60;;;;;;4998799;28;20092;-53
2020/12/03 07:41:47;;;;;;;1.00;0.77;;;17.10;48.70;;;;;;5015419;28;20050;-51
2020/12/03 07:44:33;;;;;;;1.85;1.48;;;17.10;48.60;;;;;;5019315;28;20049;-50
2020/12/03 07:47:33;;;;;;;2.13;1.52;;;17.10;48.60;;;;;;5018078;28;20657;-48
2020/12/03 07:50:02;;;;;;;6.88;1.67;;;17.10;48.60;;;;;;5064460;28;20483;-51
2020/12/03 07:52:35;;;;;;;1.77;1.65;;;17.10;48.70;;;;;;5097205;28;20502;-51
2020/12/03 07:55:35;;;;;;;4.57;1.60;;;17.10;48.60;;;;;;5099191;28;20067;-50
2020/12/03 07:58:02;;;;;;;2.35;1.55;;;17.10;48.60;;;;;;5100841;28;20130;-52
2020/12/03 08:00:43;;;;;;;2.67;1.27;;;17.10;48.70;;;;;;5099740;28;20044;-50
2020/12/03 08:03:31;;;;;;;1.77;1.67;;;17.10;48.70;;;;;;5098126;28;20056;-52
2020/12/03 08:06:11;;;;;;;2.83;1.70;;;17.10;48.70;;;;;;5101293;28;20103;-55
2020/12/03 08:08:39;;;;;;;2.28;1.90;;;17.10;48.80;;;;;;5101835;28;20035;-49
2020/12/03 08:11:35;;;;;;;3.05;2.20;;;17.10;48.90;;;;;;5101425;28;20051;-52
2020/12/03 08:14:03;;;;;;;7.95;2.30;;;17.10;48.80;;;;;;5091390;28;20055;-55
2020/12/03 08:16:40;;;;;;;6.47;2.35;;;17.10;48.90;;;;;;5089825;28;20040;-51
2020/12/03 08:19:20;;;;;;;6.63;1.70;;;17.10;48.80;;;;;;5087553;28;20655;-47
2020/12/03 08:21:48;;;;;;;4.22;1.73;;;17.10;49.40;;;;;;5085739;28;20040;-56
2020/12/03 08:24:23;;;;;;;3.50;1.83;;;17.10;48.80;;;;;;5090321;28;20059;-51
2020/12/03 08:26:55;;;;;;;13.32;2.45;;;17.10;48.90;;;;;;5083459;28;20052;-48
2020/12/03 08:29:40;;;;;;;21.67;7.05;;;17.10;48.90;;;;;;5082710;28;20924;-50
2020/12/03 08:32:07;;;;;;;9.50;4.75;;;17.20;49.30;;;;;;5092161;28;20051;-49
2020/12/03 08:34:35;;;;;;;13.88;3.60;;;17.10;49.50;;;;;;5075816;28;20047;-51
2020/12/03 08:37:03;;;;;;;7.10;3.28;;;17.20;49.50;;;;;;5086237;28;20056;-48
2020/12/03 08:39:30;;;;;;;12.70;4.32;;;17.20;49.50;;;;;;5084184;28;20039;-46
2020/12/03 08:41:58;;;;;;;5.93;3.05;;;17.20;49.50;;;;;;5082870;28;20040;-47
2020/12/03 08:44:25;;;;;;;6.47;3.40;;;17.20;49.30;;;;;;5082402;28;20538;-46
2020/12/03 08:46:54;;;;;;;5.72;2.95;;;17.20;49.30;;;;;;5091955;28;20138;-49
2020/12/03 08:49:23;;;;;;;4.25;3.38;;;17.20;49.30;;;;;;5089503;28;20048;-51
2020/12/03 08:51:52;;;;;;;5.22;3.25;;;17.20;49.30;;;;;;5091488;28;20411;-50
2020/12/03 08:54:24;;;;;;;6.95;3.63;;;17.30;49.20;;;;;;5089586;28;20101;-47
2020/12/03 08:56:56;;;;;;;7.38;3.70;;;17.30;49.80;;;;;;5089884;28;20065;-50
2020/12/03 08:59:29;;;;;;;6.07;2.78;;;17.30;49.20;;;;;;5088085;28;20055;-49
2020/12/03 09:02:06;;;;;;;3.35;2.40;;;17.30;49.20;;;;;;5082830;28;20043;-51
2020/12/03 09:04:36;;;;;;;8.48;3.17;;;17.30;49.10;;;;;;5089940;28;20502;-49
2020/12/03 09:07:07;;;;;;;2.80;2.05;;;17.30;49.20;;;;;;5085926;28;20495;-47
2020/12/03 09:09:37;;;;;;;3.72;2.58;;;17.30;49.10;;;;;;5078043;28;20055;-47
2020/12/03 09:12:08;;;;;;;2.70;2.10;;;17.30;49.00;;;;;;5091639;28;20578;-52
2020/12/03 09:14:38;;;;;;;5.43;2.63;;;17.30;49.00;;;;;;5090662;28;20119;-47
2020/12/03 09:17:08;;;;;;;5.05;2.13;;;17.30;49.00;;;;;;5090043;28;20047;-50
2020/12/03 09:19:35;;;;;;;4.97;2.10;;;17.40;49.10;;;;;;5081946;28;20050;-47
2020/12/03 09:22:04;;;;;;;1.52;1.30;;;17.30;49.00;;;;;;5074302;28;20053;-49
2020/12/03 09:24:32;;;;;;;2.83;2.38;;;17.40;49.10;;;;;;5078728;28;20064;-47
2020/12/03 09:27:04;;;;;;;2.38;1.80;;;17.40;49.00;;;;;;5086980;28;20111;-53
2020/12/03 09:29:31;;;;;;;5.18;2.00;;;17.40;48.80;;;;;;5102470;27;20040;-48
2020/12/03 09:32:00;;;;;;;3.58;1.67;;;17.40;48.80;;;;;;5076249;28;20103;-51
2020/12/03 09:34:31;;;;;;;1.77;0.88;;;17.40;48.70;;;;;;5072238;28;20056;-53
2020/12/03 09:36:58;;;;;;;3.47;1.45;;;17.40;48.60;;;;;;5084133;28;20048;-47
2020/12/03 09:39:27;;;;;;;3.50;0.68;;;17.40;48.60;;;;;;5075874;28;20121;-47
2020/12/03 09:41:54;;;;;;;8.30;1.45;;;17.40;48.70;;;;;;5090862;28;20051;-50
2020/12/03 09:44:22;;;;;;;5.32;1.30;;;17.40;48.70;;;;;;5087938;28;20525;-49
2020/12/03 09:46:53;;;;;;;4.18;1.23;;;17.40;48.70;;;;;;5085529;28;20430;-51
2020/12/03 09:49:21;;;;;;;5.43;1.75;;;17.40;48.70;;;;;;5084776;28;20052;-51
2020/12/03 09:51:48;;;;;;;3.67;1.42;;;17.40;48.60;;;;;;5087061;28;20123;-51
2020/12/03 09:54:15;;;;;;;15.40;1.27;;;17.40;48.60;;;;;;5088546;28;20135;-47
2020/12/03 09:56:43;;;;;;;7.95;2.25;;;17.40;48.70;;;;;;5087162;28;20152;-47
2020/12/03 09:59:12;;;;;;;12.70;1.83;;;17.40;48.70;;;;;;5085840;28;20900;-49
2020/12/03 10:02:03;;;;;;;14.25;2.45;;;17.40;48.60;;;;;;5090555;28;20090;-46
2020/12/03 10:04:58;;;;;;;18.45;2.22;;;17.50;48.60;;;;;;5103838;28;20072;-47
2020/12/03 10:07:44;;;;;;;14.45;3.55;;;17.50;48.50;;;;;;5087855;28;20075;-47
2020/12/03 10:10:16;;;;;;;21.40;2.15;;;17.40;48.60;;;;;;5076942;28;20621;-47
2020/12/03 10:12:59;;;;;;;14.63;2.28;;;17.40;48.80;;;;;;5076897;28;20049;-48
2020/12/03 10:15:56;;;;;;;23.10;2.42;;;17.40;48.80;;;;;;5090728;28;20051;-54
2020/12/03 10:18:24;;;;;;;14.52;1.75;;;17.40;48.90;;;;;;5087706;28;20048;-48
2020/12/03 10:20:52;;;;;;;20.88;2.05;;;17.40;48.80;;;;;;5090713;28;20044;-50
2020/12/03 10:23:43;;;;;;;13.98;2.45;;;17.40;48.90;;;;;;5090289;28;20054;-47
2020/12/03 10:26:24;;;;;;;7.78;1.00;;;17.50;49.00;;;;;;5087294;28;20552;-50
2020/12/03 10:28:53;;;;;;;12.00;1.05;;;17.50;48.90;;;;;;5090537;28;20036;-51
2020/12/03 10:31:21;;;;;;;6.78;0.93;;;17.40;48.80;;;;;;5088345;28;20073;-51
2020/12/03 10:33:49;;;;;;;9.30;1.67;;;17.50;48.90;;;;;;5092678;28;20126;-48
2020/12/03 10:36:39;;;;;;;12.93;1.38;;;17.50;48.80;;;;;;5092672;28;20154;-50
2020/12/03 10:39:07;;;;;;;8.93;1.65;;;17.50;48.60;;;;;;5090371;28;20036;-48
2020/12/03 10:41:38;;;;;;;7.40;0.63;;;17.50;48.60;;;;;;5090344;28;20499;-49
2020/12/03 10:44:10;;;;;;;13.35;1.45;;;17.50;48.60;;;;;;5092759;28;20105;-47
2020/12/03 10:46:44;;;;;;;10.65;1.70;;;17.50;48.60;;;;;;5073963;28;20040;-48
2020/12/03 10:49:15;;;;;;;11.10;1.05;;;17.50;48.70;;;;;;5087637;28;20048;-49
2020/12/03 10:51:43;;;;;;;10.15;1.13;;;17.50;48.50;;;;;;5096870;28;20105;-52
2020/12/03 10:54:16;;;;;;;7.35;0.80;;;17.50;48.40;;;;;;5077414;28;20504;-52
2020/12/03 10:56:45;;;;;;;9.30;2.00;;;17.50;48.40;;;;;;5084292;28;20123;-47
2020/12/03 11:02:19;;;;;;;10.15;1.90;;;17.50;48.40;;;;;;5097314;28;20518;-50
2020/12/03 11:04:47;;;;;;;6.70;1.35;;;17.50;48.50;;;;;;5078775;28;20075;-47
2020/12/03 11:07:13;;;;;;;6.50;1.42;;;17.50;48.50;;;;;;5091302;28;20075;-47
2020/12/03 11:09:42;;;;;;;4.80;0.55;;;17.50;48.40;;;;;;5092972;28;20048;-47
2020/12/03 11:12:11;;;;;;;8.52;1.33;;;17.50;48.40;;;;;;5093553;28;20048;-47
2020/12/03 11:14:39;;;;;;;12.50;1.38;;;17.50;48.50;;;;;;5089640;28;20123;-47
2020/12/03 11:17:14;;;;;;;7.03;1.35;;;17.50;48.50;;;;;;5080039;28;20510;-49
2020/12/03 11:19:43;;;;;;;13.70;0.80;;;17.50;48.60;;;;;;5076090;28;20044;-50
2020/12/03 11:22:31;;;;;;;11.68;0.77;;;17.50;48.70;;;;;;5084565;28;20048;-47
2020/12/03 11:25:02;;;;;;;15.35;1.85;;;17.50;48.60;;;;;;5079443;28;20044;-51
2020/12/03 11:27:31;;;;;;;8.20;0.95;;;17.40;50.40;;;;;;5091964;28;20040;-55
2020/12/03 11:30:13;;;;;;;11.07;1.73;;;17.50;52.30;;;;;;5092571;28;20770;-49
2020/12/03 11:32:46;;;;;;;13.43;0.95;;;17.50;53.30;;;;;;5093262;28;20506;-48
2020/12/03 11:35:24;;;;;;;13.60;0.77;;;17.50;53.60;;;;;;5091241;28;20047;-48
2020/12/03 11:37:52;;;;;;;10.48;1.30;;;17.50;53.70;;;;;;5079205;28;20047;-49
2020/12/03 11:40:30;;;;;;;3.72;0.77;;;17.50;53.60;;;;;;5090790;28;20507;-48
2020/12/03 11:43:09;;;;;;;7.30;0.75;;;17.50;53.50;;;;;;5076504;28;20059;-50
2020/12/03 11:48:28;;;;;;;7.20;0.68;;;17.50;53.20;;;;;;5091508;28;20052;-48
2020/12/03 11:50:55;;;;;;;13.38;1.00;;;17.50;53.20;;;;;;5092774;28;20048;-51
2020/12/03 11:53:22;;;;;;;9.15;0.45;;;17.50;52.90;;;;;;5089753;28;20235;-50
2020/12/03 11:55:49;;;;;;;10.07;0.65;;;17.50;52.70;;;;;;5076672;28;20048;-48
2020/12/03 11:58:16;;;;;;;5.50;0.57;;;17.50;52.50;;;;;;5074565;28;20505;-50
2020/12/03 12:00:44;;;;;;;8.82;0.50;;;17.50;52.60;;;;;;5093106;28;20123;-51
2020/12/03 12:03:14;;;;;;;8.32;1.17;;;17.50;52.40;;;;;;5092198;28;20264;-50
2020/12/03 12:05:48;;;;;;;11.75;0.50;;;17.40;52.20;;;;;;5092640;28;20128;-53
2020/12/03 12:08:24;;;;;;;8.00;0.43;;;17.40;52.20;;;;;;5090185;28;20051;-54
2020/12/03 12:10:56;;;;;;;4.63;0.50;;;17.40;52.10;;;;;;5078688;28;20097;-51
2020/12/03 12:13:23;;;;;;;5.75;1.25;;;17.40;52.00;;;;;;5091272;28;20911;-50
2020/12/03 12:15:50;;;;;;;3.92;1.00;;;17.40;51.90;;;;;;5074832;28;20054;-51
2020/12/03 12:18:17;;;;;;;5.28;0.93;;;17.40;51.80;;;;;;5079270;28;20044;-50
2020/12/03 12:20:44;;;;;;;5.03;1.25;;;17.40;51.80;;;;;;5079298;28;20044;-50
2020/12/03 12:23:11;;;;;;;6.20;0.90;;;17.40;51.80;;;;;;5081003;28;20120;-51
2020/12/03 12:25:37;;;;;;;3.58;0.57;;;17.40;51.80;;;;;;5075975;28;20055;-52
2020/12/03 12:28:04;;;;;;;3.03;0.90;;;17.40;51.80;;;;;;5090570;28;20105;-49
2020/12/03 12:30:32;;;;;;;7.50;1.25;;;17.40;51.90;;;;;;5091837;28;20115;-51
2020/12/03 12:32:59;;;;;;;3.72;0.45;;;17.40;52.00;;;;;;5091853;28;20089;-50
2020/12/03 12:35:26;;;;;;;8.93;0.60;;;17.40;51.90;;;;;;5091720;28;20039;-49
2020/12/03 12:37:53;;;;;;;4.38;0.65;;;17.40;51.90;;;;;;5092046;28;20100;-48
2020/12/03 12:40:20;;;;;;;5.35;0.28;;;17.40;51.80;;;;;;5089989;28;20050;-49
2020/12/03 12:42:47;;;;;;;5.68;0.82;;;17.40;51.60;;;;;;5092329;28;20051;-49
2020/12/03 12:45:13;;;;;;;3.72;0.60;;;17.40;51.60;;;;;;5091545;28;20055;-49
2020/12/03 12:47:40;;;;;;;4.30;0.43;;;17.50;51.50;;;;;;5091780;28;20047;-48
2020/12/03 12:50:08;;;;;;;3.58;0.47;;;17.50;51.30;;;;;;5091904;28;20044;-51
2020/12/03 12:52:34;;;;;;;3.42;0.45;;;17.40;51.20;;;;;;5090422;28;20040;-48
2020/12/03 12:55:01;;;;;;;4.97;1.10;;;17.40;51.00;;;;;;5074484;28;20067;-49
2020/12/03 12:57:28;;;;;;;1.80;0.40;;;17.40;51.00;;;;;;5090886;28;20044;-52
2020/12/03 12:59:54;;;;;;;2.00;0.57;;;17.40;50.90;;;;;;5091568;28;20094;-52
2020/12/03 13:02:21;;;;;;;4.88;0.20;;;17.40;50.80;;;;;;5091273;28;20047;-48
2020/12/03 13:04:48;;;;;;;3.92;0.88;;;17.40;50.80;;;;;;5091524;28;20409;-51
2020/12/03 13:07:15;;;;;;;6.38;0.82;;;17.40;50.70;;;;;;5089181;28;20522;-49
2020/12/03 13:09:42;;;;;;;3.75;0.57;;;17.40;50.80;;;;;;5090931;28;20426;-49
2020/12/03 13:12:08;;;;;;;1.63;0.30;;;17.40;51.00;;;;;;5091421;28;20044;-49
2020/12/03 13:14:35;;;;;;;2.17;0.20;;;17.40;50.80;;;;;;5091265;28;20032;-52
2020/12/03 13:17:02;;;;;;;3.72;0.30;;;17.40;50.60;;;;;;5090846;28;20071;-50